Time;durP1;ratioP1;P1;durP2;ratioP2;P2;SDS_P1;SDS_P2;PMS_P1;PMS_P2;Temp;Humidity;BMP_temperature;BMP_pressure;BME280_temperature;BME280_humidity;BME280_pressure;Samples;Min_cycle;Max_cycle;Signal;HPM_P1;HPM_P2
2022/12/02 00:01:05;;;;;;;82.27;33.00;;;;;;;2.65;100.00;101271.91;5099286;28;20551;-68
2022/12/02 00:03:34;;;;;;;99.73;34.47;;;;;;;2.70;100.00;101263.78;5100808;28;20439;-69
2022/12/02 00:06:02;;;;;;;97.73;33.70;;;;;;;2.63;100.00;101266.69;5102971;28;20478;-68
2022/12/02 00:08:30;;;;;;;82.57;32.67;;;;;;;2.76;100.00;101263.50;5101795;28;20805;-69
2022/12/02 00:10:58;;;;;;;93.73;32.00;;;;;;;2.64;100.00;101271.06;5083836;28;20487;-66
2022/12/02 00:13:26;;;;;;;94.97;35.00;;;;;;;2.74;100.00;101260.09;5088837;28;20472;-68
2022/12/02 00:15:56;;;;;;;93.47;35.73;;;;;;;2.62;100.00;101257.06;5084935;28;21178;-69
2022/12/02 00:18:23;;;;;;;86.77;32.63;;;;;;;2.66;100.00;101257.78;5083685;28;20441;-71
2022/12/02 00:20:49;;;;;;;92.47;34.70;;;;;;;2.43;100.00;101264.88;5087159;28;20483;-69
2022/12/02 00:23:17;;;;;;;89.13;32.57;;;;;;;2.46;100.00;101258.59;5097920;28;20449;-70
2022/12/02 00:25:48;;;;;;;90.70;35.63;;;;;;;2.52;100.00;101260.13;5083627;28;20582;-68
2022/12/02 00:28:15;;;;;;;89.63;33.50;;;;;;;2.54;100.00;101253.88;5083965;28;20992;-71
2022/12/02 00:30:41;;;;;;;102.17;33.37;;;;;;;2.67;100.00;101256.00;5086549;28;20479;-71
2022/12/02 00:33:09;;;;;;;89.63;33.87;;;;;;;2.51;100.00;101261.06;5089042;28;20520;-68
2022/12/02 00:35:35;;;;;;;82.77;33.70;;;;;;;2.58;100.00;101251.97;5087024;28;20515;-69
2022/12/02 00:38:02;;;;;;;94.93;33.80;;;;;;;2.74;100.00;101257.44;5084199;28;20464;-69
2022/12/02 00:40:30;;;;;;;92.53;35.57;;;;;;;2.51;100.00;101251.34;5091299;28;20513;-69
2022/12/02 00:46:30;;;;;;;95.27;35.20;;;;;;;2.50;100.00;101257.56;5103352;28;20483;-70
2022/12/02 00:48:28;;;;;;;86.50;32.90;;;;;;;2.68;100.00;101263.00;5094979;28;20527;-69
2022/12/02 00:50:55;;;;;;;91.73;32.20;;;;;;;2.68;100.00;101261.22;5101423;28;20499;-69
2022/12/02 00:53:21;;;;;;;97.17;32.87;;;;;;;2.62;100.00;101251.78;5095921;28;20475;-70
2022/12/02 00:55:49;;;;;;;89.43;31.70;;;;;;;2.74;100.00;101249.53;5086760;28;20508;-70
2022/12/02 00:58:16;;;;;;;87.77;31.33;;;;;;;2.76;100.00;101248.56;5092701;28;20466;-70
2022/12/02 01:00:43;;;;;;;80.23;27.90;;;;;;;2.78;100.00;101249.34;5097855;28;20483;-67
2022/12/02 01:03:10;;;;;;;84.57;32.60;;;;;;;2.74;100.00;101244.25;5083165;28;20432;-69
2022/12/02 01:05:36;;;;;;;107.87;31.90;;;;;;;2.50;100.00;101236.47;5078018;28;20511;-70
2022/12/02 01:08:03;;;;;;;89.03;33.80;;;;;;;2.47;100.00;101241.84;5083359;28;20496;-70
2022/12/02 01:10:30;;;;;;;85.40;29.33;;;;;;;2.47;100.00;101244.50;5082338;28;20498;-67
2022/12/02 01:12:58;;;;;;;73.97;30.87;;;;;;;2.52;100.00;101239.88;5082908;28;20475;-68
2022/12/02 01:15:24;;;;;;;91.77;32.27;;;;;;;2.60;100.00;101235.16;5082303;28;20456;-66
2022/12/02 01:17:51;;;;;;;89.50;32.20;;;;;;;2.44;100.00;101239.34;5098008;28;20473;-69
2022/12/02 01:20:18;;;;;;;99.53;31.80;;;;;;;2.41;100.00;101244.75;5081251;28;20876;-69
2022/12/02 01:22:44;;;;;;;90.13;32.50;;;;;;;2.53;100.00;101241.59;5103125;28;20455;-70
2022/12/02 01:25:11;;;;;;;92.37;35.10;;;;;;;2.53;100.00;101235.47;5082704;28;20479;-70
2022/12/02 01:27:38;;;;;;;84.50;31.07;;;;;;;2.38;100.00;101239.63;5083658;28;20503;-68
2022/12/02 01:30:07;;;;;;;95.30;30.93;;;;;;;2.38;100.00;101237.81;5085340;28;20468;-67
2022/12/02 01:32:34;;;;;;;98.70;32.13;;;;;;;2.23;100.00;101220.84;5081367;28;21067;-68
2022/12/02 01:35:00;;;;;;;93.13;32.50;;;;;;;2.36;100.00;101231.75;5082966;28;20464;-66
2022/12/02 01:37:27;;;;;;;82.63;32.60;;;;;;;2.45;100.00;101228.72;5081757;28;20500;-66
2022/12/02 01:39:53;;;;;;;84.97;31.70;;;;;;;2.32;100.00;101231.94;5082788;28;20555;-69
2022/12/02 01:42:20;;;;;;;95.60;29.63;;;;;;;2.38;100.00;101231.69;5081540;28;20508;-69
2022/12/02 01:44:47;;;;;;;80.43;31.37;;;;;;;2.32;100.00;101226.66;5082755;28;20448;-69
2022/12/02 01:47:15;;;;;;;84.57;30.47;;;;;;;2.21;100.00;101235.88;5099097;28;20486;-70
2022/12/02 01:49:41;;;;;;;83.67;30.13;;;;;;;2.16;100.00;101232.56;5086525;28;20527;-71
2022/12/02 01:52:08;;;;;;;81.80;28.50;;;;;;;2.23;100.00;101238.44;5081567;28;20500;-71
2022/12/02 01:54:35;;;;;;;86.57;28.77;;;;;;;2.23;100.00;101238.44;5062029;28;20514;-67
2022/12/02 01:57:02;;;;;;;78.80;29.57;;;;;;;2.18;100.00;101235.16;5077679;28;20499;-70
2022/12/02 01:59:28;;;;;;;88.53;30.93;;;;;;;2.20;100.00;101228.03;5096514;28;20477;-66
2022/12/02 02:01:55;;;;;;;80.63;29.30;;;;;;;2.16;100.00;101232.56;5100103;28;20475;-65
2022/12/02 02:04:23;;;;;;;89.43;32.77;;;;;;;2.12;100.00;101225.72;5081764;28;20475;-69
2022/12/02 02:06:51;;;;;;;84.33;31.47;;;;;;;2.09;100.00;101228.47;5092305;28;20550;-69
2022/12/02 02:09:18;;;;;;;75.33;29.13;;;;;;;2.17;100.00;101231.66;5098582;28;20448;-69
2022/12/02 02:11:45;;;;;;;78.63;29.90;;;;;;;2.07;100.00;101227.69;5081010;28;20984;-70
2022/12/02 02:14:12;;;;;;;73.03;28.70;;;;;;;2.19;100.00;101229.81;5086754;28;21004;-67
2022/12/02 02:16:39;;;;;;;78.40;31.00;;;;;;;2.17;100.00;101226.38;5080738;28;20551;-68
2022/12/02 02:19:10;;;;;;;92.17;32.23;;;;;;;2.23;100.00;101225.25;5082086;28;20503;-69
2022/12/02 02:21:42;;;;;;;93.70;32.67;;;;;;;2.19;100.00;101228.97;5081387;28;20511;-69
2022/12/02 02:24:10;;;;;;;79.77;30.90;;;;;;;2.31;100.00;101219.66;5085972;28;20476;-70
2022/12/02 02:26:37;;;;;;;94.93;31.67;;;;;;;2.27;100.00;101218.94;5100266;28;20478;-70
2022/12/02 02:29:04;;;;;;;79.10;31.67;;;;;;;2.26;100.00;101217.22;5095464;28;20523;-71
2022/12/02 02:31:30;;;;;;;92.80;33.43;;;;;;;2.21;100.00;101214.78;5099129;28;20491;-68
2022/12/02 02:33:57;;;;;;;84.57;31.20;;;;;;;2.28;100.00;101211.88;5101616;28;20440;-69
2022/12/02 02:36:24;;;;;;;75.27;27.50;;;;;;;2.20;100.00;101212.19;5086113;28;20480;-69
2022/12/02 02:38:50;;;;;;;78.67;29.80;;;;;;;2.18;100.00;101208.75;5089866;28;20510;-70
2022/12/02 02:41:18;;;;;;;82.17;27.60;;;;;;;2.15;100.00;101203.59;5100509;28;20478;-66
2022/12/02 02:43:45;;;;;;;76.83;27.27;;;;;;;2.10;100.00;101201.19;5101605;28;20472;-65
2022/12/02 02:46:12;;;;;;;69.57;28.23;;;;;;;2.13;100.00;101208.94;5100371;28;20502;-68
2022/12/02 02:48:39;;;;;;;73.63;28.43;;;;;;;2.20;100.00;101202.47;5087732;28;20556;-68
2022/12/02 02:51:06;;;;;;;64.67;26.97;;;;;;;2.17;100.00;101204.41;5080996;28;20770;-66
2022/12/02 02:53:33;;;;;;;66.97;28.10;;;;;;;2.13;100.00;101200.19;5081689;28;20447;-68
2022/12/02 02:55:59;;;;;;;71.47;28.20;;;;;;;2.15;100.00;101182.50;5088432;28;20536;-69
2022/12/02 02:58:28;;;;;;;74.70;29.90;;;;;;;2.19;100.00;101197.31;5101353;28;20420;-70
2022/12/02 03:00:56;;;;;;;60.00;26.63;;;;;;;2.21;100.00;101188.38;5095685;28;20525;-69
2022/12/02 03:03:26;;;;;;;63.70;26.80;;;;;;;2.18;100.00;101193.78;5081509;28;20476;-66
2022/12/02 03:05:54;;;;;;;72.00;27.70;;;;;;;2.17;100.00;101184.16;5081514;28;20476;-70
2022/12/02 03:08:21;;;;;;;67.57;27.77;;;;;;;2.19;100.00;101184.97;5081573;28;20515;-63
2022/12/02 03:10:47;;;;;;;87.30;29.40;;;;;;;2.11;100.00;101180.94;5086146;28;20506;-70
2022/12/02 03:13:14;;;;;;;78.90;29.30;;;;;;;2.20;100.00;101178.75;5101531;28;20459;-67
2022/12/02 03:15:44;;;;;;;82.17;30.07;;;;;;;2.10;100.00;101179.19;5081389;28;20477;-69
2022/12/02 03:18:11;;;;;;;82.20;31.47;;;;;;;2.07;100.00;101177.56;5089536;28;20436;-68
2022/12/02 03:20:38;;;;;;;78.87;28.03;;;;;;;2.14;100.00;101170.25;5081387;28;20478;-70
2022/12/02 03:23:05;;;;;;;82.83;32.13;;;;;;;2.15;100.00;101169.31;5100073;28;20450;-67
2022/12/02 03:25:32;;;;;;;95.03;34.10;;;;;;;2.04;100.00;101178.53;5080874;28;20498;-70
2022/12/02 03:27:59;;;;;;;87.83;29.53;;;;;;;2.04;100.00;101175.88;5083450;28;20488;-70
2022/12/02 03:30:25;;;;;;;97.03;33.47;;;;;;;2.01;100.00;101170.72;5080250;28;20540;-66
2022/12/02 03:32:53;;;;;;;82.13;30.80;;;;;;;1.94;100.00;101168.41;5092164;28;20486;-69
2022/12/02 03:35:20;;;;;;;83.87;29.47;;;;;;;1.94;100.00;101173.69;5097515;28;20439;-70
2022/12/02 03:37:47;;;;;;;98.87;32.90;;;;;;;1.88;100.00;101159.00;5081005;28;20461;-67
2022/12/02 03:40:13;;;;;;;79.63;30.40;;;;;;;1.99;100.00;101155.91;5096710;28;20531;-70
2022/12/02 03:42:40;;;;;;;97.47;32.30;;;;;;;1.94;100.00;101158.72;5085983;28;20516;-71
2022/12/02 03:45:08;;;;;;;76.27;29.43;;;;;;;1.83;100.00;101164.44;5090041;28;20467;-69
2022/12/02 03:47:35;;;;;;;92.17;30.53;;;;;;;1.76;100.00;101165.59;5085800;28;20976;-69
2022/12/02 03:50:04;;;;;;;88.70;31.70;;;;;;;1.81;100.00;101161.00;5089525;28;20602;-68
2022/12/02 03:52:31;;;;;;;95.73;29.90;;;;;;;1.91;100.00;101155.34;5085168;28;20495;-70
2022/12/02 03:54:58;;;;;;;79.90;32.27;;;;;;;2.02;100.00;101151.34;5100855;28;20448;-67
2022/12/02 03:57:26;;;;;;;89.70;29.97;;;;;;;1.76;100.00;101157.69;5083207;28;20578;-66
2022/12/02 03:59:52;;;;;;;79.37;27.60;;;;;;;1.72;100.00;101157.88;5086692;28;20447;-71
2022/12/02 04:02:19;;;;;;;75.70;27.40;;;;;;;1.73;100.00;101152.53;5090235;28;21085;-68
2022/12/02 04:04:45;;;;;;;78.80;28.93;;;;;;;1.78;100.00;101158.50;5084649;28;20480;-69
2022/12/02 04:07:13;;;;;;;83.10;28.27;;;;;;;1.73;100.00;101151.69;5094962;28;20586;-70
2022/12/02 04:09:40;;;;;;;84.47;27.13;;;;;;;1.72;100.00;101156.13;5087668;28;20484;-68
2022/12/02 04:12:07;;;;;;;75.07;27.97;;;;;;;1.55;100.00;101143.59;5098466;28;20547;-70
2022/12/02 04:14:33;;;;;;;69.47;26.67;;;;;;;1.81;100.00;101153.09;5104236;28;20518;-71
2022/12/02 04:17:00;;;;;;;74.40;29.27;;;;;;;1.67;100.00;101143.13;5086554;28;20572;-69
2022/12/02 04:19:26;;;;;;;75.90;28.13;;;;;;;1.77;100.00;101145.38;5084036;28;20476;-68
2022/12/02 04:21:53;;;;;;;79.40;27.03;;;;;;;1.81;100.00;101145.19;5082987;28;20504;-70
2022/12/02 04:24:21;;;;;;;66.20;26.27;;;;;;;1.80;100.00;101139.97;5097936;28;20535;-70
2022/12/02 04:26:48;;;;;;;61.77;25.70;;;;;;;1.93;100.00;101135.94;5093561;28;20519;-68
2022/12/02 04:29:14;;;;;;;54.27;22.93;;;;;;;1.76;100.00;101144.53;5083881;28;20796;-70
2022/12/02 04:31:41;;;;;;;66.77;23.40;;;;;;;1.90;100.00;101136.03;5082301;28;20568;-71
2022/12/02 04:34:07;;;;;;;54.37;24.57;;;;;;;1.98;100.00;101141.00;5096659;28;20475;-70
2022/12/02 04:36:34;;;;;;;56.03;23.50;;;;;;;1.96;100.00;101133.16;5103022;28;20507;-71
2022/12/02 04:39:00;;;;;;;51.23;22.40;;;;;;;1.93;100.00;101135.03;5104399;28;20557;-68
2022/12/02 04:41:29;;;;;;;52.77;23.27;;;;;;;1.79;100.00;101144.41;5102873;28;20507;-70
2022/12/02 04:43:55;;;;;;;42.53;21.30;;;;;;;1.86;100.00;101142.38;5103171;28;20444;-70
2022/12/02 04:46:22;;;;;;;49.97;22.00;;;;;;;2.00;100.00;101136.53;5102526;28;20919;-68
2022/12/02 04:48:49;;;;;;;51.23;21.40;;;;;;;1.85;100.00;101127.47;5087419;28;20575;-69
2022/12/02 04:51:15;;;;;;;54.33;20.60;;;;;;;1.86;100.00;101127.41;5098345;28;20547;-70
2022/12/02 04:53:42;;;;;;;53.70;22.40;;;;;;;1.90;100.00;101129.94;5094079;28;20443;-68
2022/12/02 04:56:08;;;;;;;44.87;19.67;;;;;;;1.85;100.00;101123.03;5102679;28;20479;-69
2022/12/02 04:58:37;;;;;;;41.20;18.00;;;;;;;1.84;100.00;101128.38;5091131;28;20520;-70
2022/12/02 05:01:04;;;;;;;42.50;19.23;;;;;;;1.74;100.00;101129.69;5081911;28;20468;-69
2022/12/02 05:03:31;;;;;;;53.17;21.70;;;;;;;1.77;100.00;101133.06;5103201;28;20450;-70
2022/12/02 05:05:57;;;;;;;45.20;20.87;;;;;;;1.79;100.00;101120.66;5102667;28;20483;-69
2022/12/02 05:08:24;;;;;;;49.23;19.20;;;;;;;1.84;100.00;101121.34;5103137;28;20471;-70
2022/12/02 05:10:50;;;;;;;38.40;18.90;;;;;;;1.88;100.00;101115.00;5102145;28;20503;-68
2022/12/02 05:13:17;;;;;;;41.47;19.77;;;;;;;1.82;100.00;101117.03;5093932;28;20460;-71
2022/12/02 05:15:45;;;;;;;45.43;19.80;;;;;;;1.87;100.00;101118.59;5101884;28;20471;-72
2022/12/02 05:18:12;;;;;;;44.20;20.30;;;;;;;1.98;100.00;101117.25;5087118;28;20504;-72
2022/12/02 05:20:38;;;;;;;46.60;22.80;;;;;;;1.88;100.00;101111.53;5091278;28;20464;-71
2022/12/02 05:23:05;;;;;;;45.30;21.50;;;;;;;1.73;100.00;101106.88;5095937;28;20467;-71
2022/12/02 05:25:31;;;;;;;40.40;19.33;;;;;;;1.83;100.00;101111.72;5082410;28;20480;-69
2022/12/02 05:27:58;;;;;;;43.87;21.33;;;;;;;1.91;100.00;101108.78;5084248;28;20507;-65
2022/12/02 05:30:25;;;;;;;64.03;22.80;;;;;;;1.88;100.00;101117.66;5083282;28;20550;-67
2022/12/02 05:32:53;;;;;;;50.13;22.97;;;;;;;1.82;100.00;101117.03;5084553;28;20579;-68
2022/12/02 05:35:19;;;;;;;49.20;21.87;;;;;;;1.86;100.00;101106.31;5077475;28;20487;-62
2022/12/02 05:37:46;;;;;;;49.33;21.80;;;;;;;1.94;100.00;101113.88;5097359;28;20427;-62
2022/12/02 05:40:12;;;;;;;46.47;20.63;;;;;;;1.92;99.98;101117.53;5081903;28;21048;-62
2022/12/02 05:42:40;;;;;;;50.03;21.90;;;;;;;1.77;100.00;101114.63;5084041;28;20479;-62
2022/12/02 05:45:13;;;;;;;52.10;23.27;;;;;;;1.83;99.85;101110.84;5101304;28;20440;-62
2022/12/02 05:47:40;;;;;;;45.97;22.77;;;;;;;1.75;100.00;101103.25;5082502;28;20457;-62
2022/12/02 05:50:12;;;;;;;47.60;21.20;;;;;;;1.75;99.90;101124.34;5081188;28;20456;-62
2022/12/02 05:52:38;;;;;;;47.83;21.77;;;;;;;1.65;100.00;101117.72;5068752;28;20481;-62
2022/12/02 05:55:12;;;;;;;50.40;22.10;;;;;;;1.72;99.73;101118.34;5080526;28;20464;-62
2022/12/02 05:57:39;;;;;;;47.60;22.47;;;;;;;1.83;99.32;101119.63;5099372;28;20551;-63
2022/12/02 06:00:14;;;;;;;53.63;23.37;;;;;;;1.65;99.64;101120.34;5097353;28;20518;-62
2022/12/02 06:02:44;;;;;;;50.30;23.43;;;;;;;1.71;100.00;101121.91;5080929;28;20483;-63
2022/12/02 06:05:25;;;;;;;56.23;26.27;;;;;;;1.68;100.00;101129.03;5081596;28;20425;-62
2022/12/02 06:07:54;;;;;;;52.47;25.00;;;;;;;1.72;99.86;101132.41;5061532;28;20476;-62
2022/12/02 06:10:26;;;;;;;56.20;22.67;;;;;;;1.72;99.77;101131.50;5092750;28;20448;-62
2022/12/02 06:12:54;;;;;;;58.57;25.00;;;;;;;1.74;99.59;101130.53;5097382;28;20543;-62
2022/12/02 06:15:21;;;;;;;55.40;24.10;;;;;;;1.71;99.58;101129.81;5081366;28;20448;-62
2022/12/02 06:17:47;;;;;;;55.83;26.30;;;;;;;1.66;99.57;101132.63;5098702;28;20479;-62
2022/12/02 06:20:21;;;;;;;59.93;25.40;;;;;;;1.50;100.00;101127.97;5086378;28;20491;-62
2022/12/02 06:22:48;;;;;;;53.03;25.23;;;;;;;1.42;100.00;101135.31;5082019;28;20467;-62
2022/12/02 06:25:24;;;;;;;59.27;28.20;;;;;;;1.33;100.00;101127.78;5087852;28;20524;-62
2022/12/02 06:27:52;;;;;;;60.17;27.30;;;;;;;1.43;100.00;101123.88;5087999;28;20531;-62
2022/12/02 06:30:18;;;;;;;62.30;26.47;;;;;;;1.48;100.00;101132.44;5101104;28;20455;-69
2022/12/02 06:32:51;;;;;;;61.83;26.70;;;;;;;1.56;100.00;101136.56;5100211;28;20542;-69
2022/12/02 06:35:22;;;;;;;74.27;28.60;;;;;;;1.44;100.00;101138.75;5081814;28;20499;-66
2022/12/02 06:37:49;;;;;;;72.93;26.40;;;;;;;1.49;100.00;101125.38;5081776;28;20506;-68
2022/12/02 06:40:25;;;;;;;60.63;26.83;;;;;;;1.53;100.00;101131.41;5080741;28;20487;-69
2022/12/02 06:42:52;;;;;;;59.13;29.00;;;;;;;1.39;100.00;101130.19;5100663;28;20472;-68
2022/12/02 06:45:22;;;;;;;68.77;30.87;;;;;;;1.44;100.00;101127.34;5097468;28;20475;-68
2022/12/02 06:47:53;;;;;;;73.20;29.53;;;;;;;1.49;100.00;101131.53;5084079;28;20483;-69
2022/12/02 06:50:39;;;;;;;61.20;27.93;;;;;;;1.54;100.00;101130.47;5094950;28;20544;-69
2022/12/02 06:53:26;;;;;;;65.47;27.50;;;;;;;1.54;99.93;101131.34;5081079;28;20472;-67
2022/12/02 06:55:54;;;;;;;75.33;30.67;;;;;;;1.45;99.99;101129.91;5073603;28;20537;-69
2022/12/02 06:58:29;;;;;;;68.50;29.50;;;;;;;1.53;100.00;101127.00;5080747;28;20457;-69
2022/12/02 07:01:05;;;;;;;69.87;29.73;;;;;;;1.44;99.82;101127.34;5084413;28;20938;-69
2022/12/02 07:03:34;;;;;;;100.53;45.83;;;;;;;1.49;99.70;101134.19;5088620;28;20451;-69
2022/12/02 07:06:13;;;;;;;66.80;32.53;;;;;;;1.34;100.00;101132.13;5100643;28;20484;-69
2022/12/02 07:08:40;;;;;;;72.60;31.27;;;;;;;1.45;100.00;101132.56;5090892;28;20507;-67
2022/12/02 07:11:19;;;;;;;74.33;33.37;;;;;;;1.53;100.00;101131.41;5080246;28;20504;-69
2022/12/02 07:13:46;;;;;;;72.40;33.80;;;;;;;1.56;100.00;101129.50;5068032;28;20464;-68
2022/12/02 07:16:29;;;;;;;75.40;31.37;;;;;;;1.49;100.00;101128.91;5064138;28;20516;-66
2022/12/02 07:18:56;;;;;;;73.47;31.37;;;;;;;1.34;100.00;101131.25;5083186;28;20464;-69
2022/12/02 07:21:24;;;;;;;82.83;33.67;;;;;;;1.39;100.00;101139.84;5084892;28;20575;-69
2022/12/02 07:23:50;;;;;;;75.13;33.33;;;;;;;1.59;100.00;101139.06;5088839;28;20441;-70
2022/12/02 07:26:18;;;;;;;71.53;29.87;;;;;;;1.43;100.00;101134.41;5083673;28;20506;-69
2022/12/02 07:28:44;;;;;;;66.83;29.97;;;;;;;1.48;100.00;101135.09;5102863;28;20535;-69
2022/12/02 07:31:14;;;;;;;62.70;27.80;;;;;;;1.48;100.00;101147.41;5100059;28;20483;-69
2022/12/02 07:33:40;;;;;;;68.53;30.10;;;;;;;1.56;99.31;101142.66;5078174;28;20479;-69
2022/12/02 07:36:07;;;;;;;74.53;32.30;;;;;;;1.59;99.36;101146.97;5080320;28;20559;-69
2022/12/02 07:38:36;;;;;;;66.50;28.80;;;;;;;1.62;99.30;101142.44;5091821;28;20468;-68
2022/12/02 07:41:03;;;;;;;70.40;30.50;;;;;;;1.61;99.14;101134.59;5093556;28;20486;-68
2022/12/02 07:43:30;;;;;;;80.47;31.73;;;;;;;1.72;98.65;101134.16;5099580;28;20463;-69
2022/12/02 07:45:57;;;;;;;75.80;30.27;;;;;;;1.67;98.00;101134.34;5088074;28;21305;-65
2022/12/02 07:48:24;;;;;;;77.80;32.37;;;;;;;1.54;97.61;101133.97;5081417;28;21201;-68
2022/12/02 07:50:50;;;;;;;75.87;31.70;;;;;;;1.46;97.29;101130.81;5083479;28;20900;-68
2022/12/02 07:53:17;;;;;;;80.57;33.00;;;;;;;1.57;97.20;101123.31;5082859;28;20475;-69
2022/12/02 07:55:45;;;;;;;78.20;33.20;;;;;;;1.71;96.88;101133.31;5083250;28;20495;-69
2022/12/02 07:58:12;;;;;;;78.60;35.63;;;;;;;1.55;96.97;101134.84;5081265;28;20478;-67
2022/12/02 08:00:38;;;;;;;79.33;32.43;;;;;;;1.53;97.46;101127.00;5073316;28;20548;-70
2022/12/02 08:03:05;;;;;;;71.67;32.80;;;;;;;1.64;97.55;101130.06;5093492;28;20487;-65
2022/12/02 08:05:32;;;;;;;70.23;31.10;;;;;;;1.68;96.54;101130.78;5070117;28;20475;-68
2022/12/02 08:07:58;;;;;;;66.97;32.00;;;;;;;1.58;97.05;101126.78;5094126;28;20465;-69
2022/12/02 08:10:25;;;;;;;76.33;32.70;;;;;;;1.59;96.33;101129.38;5099026;28;20510;-68
2022/12/02 08:12:53;;;;;;;78.07;31.60;;;;;;;1.64;96.49;101137.97;5077064;28;20529;-69
2022/12/02 08:15:20;;;;;;;70.03;31.77;;;;;;;1.63;96.65;101136.25;5062921;28;20476;-69
2022/12/02 08:17:46;;;;;;;71.07;32.30;;;;;;;1.82;96.05;101133.75;5080825;28;20453;-68
2022/12/02 08:20:13;;;;;;;68.67;30.80;;;;;;;1.65;96.33;101142.31;5082904;28;20457;-69
2022/12/02 08:22:40;;;;;;;79.73;32.77;;;;;;;1.66;96.48;101140.53;5103426;28;20470;-69
2022/12/02 08:25:07;;;;;;;105.37;43.77;;;;;;;1.79;96.12;101139.13;5101095;28;20495;-67
2022/12/02 08:27:34;;;;;;;190.17;76.40;;;;;;;1.81;96.35;101133.78;5082429;28;20862;-70
2022/12/02 08:30:03;;;;;;;69.97;31.60;;;;;;;1.77;96.28;101130.44;5080452;28;20516;-69
2022/12/02 08:32:30;;;;;;;63.30;32.17;;;;;;;1.66;96.30;101124.72;5080358;28;20479;-68
2022/12/02 08:34:56;;;;;;;72.20;32.07;;;;;;;1.73;95.99;101136.72;5075926;28;20480;-68
2022/12/02 08:37:23;;;;;;;74.60;30.97;;;;;;;1.97;96.56;101140.13;5075591;28;20487;-69
2022/12/02 08:39:50;;;;;;;74.20;33.13;;;;;;;1.86;95.87;101145.00;5082676;28;20455;-69
2022/12/02 08:42:16;;;;;;;67.63;31.47;;;;;;;1.79;95.26;101140.88;5078024;28;20468;-69
2022/12/02 08:44:43;;;;;;;73.23;30.70;;;;;;;1.79;95.27;101146.16;5081747;28;20454;-70
2022/12/02 08:47:11;;;;;;;85.00;34.20;;;;;;;1.88;95.26;101149.28;5081290;28;20504;-69
2022/12/02 08:49:38;;;;;;;74.13;32.10;;;;;;;1.96;94.88;101141.09;5081515;28;20480;-68
2022/12/02 08:52:05;;;;;;;75.07;33.50;;;;;;;1.97;94.80;101141.94;5081103;28;20870;-69
2022/12/02 08:54:31;;;;;;;72.63;32.90;;;;;;;1.87;94.73;101142.31;5082490;28;20466;-69
2022/12/02 08:56:59;;;;;;;70.17;32.87;;;;;;;1.83;95.27;101143.34;5081524;28;20506;-70
2022/12/02 08:59:26;;;;;;;71.77;31.50;;;;;;;1.96;94.75;101140.19;5084605;28;20444;-69
2022/12/02 09:01:52;;;;;;;70.90;32.00;;;;;;;2.00;94.22;101152.34;5081151;28;20548;-70
2022/12/02 09:04:21;;;;;;;65.83;30.00;;;;;;;1.98;93.82;101154.19;5082426;28;20976;-66
2022/12/02 09:06:47;;;;;;;69.47;32.77;;;;;;;2.04;94.07;101149.50;5080866;28;20746;-69
2022/12/02 09:09:14;;;;;;;66.87;32.63;;;;;;;2.06;93.83;101146.81;5091672;28;20556;-67
2022/12/02 09:11:41;;;;;;;71.73;30.43;;;;;;;2.09;92.93;101144.06;5099990;28;20479;-65
2022/12/02 09:14:07;;;;;;;65.40;30.50;;;;;;;2.08;92.97;101147.59;5094738;28;20464;-70
2022/12/02 09:16:34;;;;;;;65.30;31.43;;;;;;;1.96;93.23;101140.19;5092114;28;20480;-67
2022/12/02 09:19:00;;;;;;;64.57;31.13;;;;;;;2.13;92.49;101148.25;5085770;28;20471;-69
2022/12/02 09:21:28;;;;;;;62.27;30.27;;;;;;;1.91;92.44;101147.44;5080190;28;20506;-67
2022/12/02 09:23:55;;;;;;;66.10;32.63;;;;;;;2.05;92.32;101139.84;5081738;28;20479;-70
2022/12/02 09:26:22;;;;;;;64.87;31.03;;;;;;;2.06;92.69;101147.66;5080361;28;20847;-68
2022/12/02 09:28:48;;;;;;;68.00;31.47;;;;;;;2.01;92.42;101149.63;5080432;28;20452;-69
2022/12/02 09:31:15;;;;;;;69.70;32.10;;;;;;;2.14;92.23;101155.28;5079682;28;20480;-65
2022/12/02 09:33:42;;;;;;;70.43;33.80;;;;;;;2.14;92.20;101155.28;5081458;28;20429;-69
2022/12/02 09:36:08;;;;;;;61.87;29.07;;;;;;;2.01;91.67;101154.06;5085021;28;20549;-67
2022/12/02 09:38:36;;;;;;;63.10;31.97;;;;;;;1.98;91.99;101154.19;5080154;28;20479;-67
2022/12/02 09:41:03;;;;;;;62.67;31.17;;;;;;;2.11;91.87;101154.53;5079640;28;20507;-67
2022/12/02 09:43:30;;;;;;;53.23;27.97;;;;;;;1.91;91.58;101147.44;5079352;28;20452;-66
2022/12/02 09:45:57;;;;;;;58.80;29.97;;;;;;;2.03;91.96;101153.09;5078525;28;21059;-69
2022/12/02 09:48:25;;;;;;;66.63;32.13;;;;;;;2.19;91.49;101148.03;5080712;28;20495;-70
2022/12/02 09:50:52;;;;;;;60.77;31.70;;;;;;;2.11;91.09;101149.28;5078657;28;20476;-69
2022/12/02 09:53:20;;;;;;;56.73;27.80;;;;;;;2.20;90.93;101146.22;5080818;28;20444;-67
2022/12/02 09:55:48;;;;;;;57.87;30.73;;;;;;;2.09;91.38;101149.31;5080539;28;20480;-67
2022/12/02 09:58:16;;;;;;;61.97;29.20;;;;;;;1.99;91.46;101148.00;5080293;28;20510;-69
2022/12/02 10:00:44;;;;;;;61.97;29.50;;;;;;;2.17;90.54;101146.34;5079936;28;20944;-68
2022/12/02 10:03:11;;;;;;;56.10;29.57;;;;;;;2.11;90.24;101150.13;5080626;28;20449;-69
2022/12/02 10:05:38;;;;;;;53.23;28.67;;;;;;;2.02;90.73;101146.09;5078092;28;20475;-69
2022/12/02 10:08:07;;;;;;;55.40;28.87;;;;;;;2.02;90.26;101142.59;5080823;28;20499;-69
2022/12/02 10:10:35;;;;;;;51.30;29.20;;;;;;;2.15;90.18;101140.28;5079832;28;20542;-68
2022/12/02 10:13:04;;;;;;;55.90;29.40;;;;;;;2.15;89.69;101145.56;5088721;28;20885;-67
2022/12/02 10:15:31;;;;;;;58.77;30.20;;;;;;;2.11;90.04;101136.94;5080325;28;20490;-67
2022/12/02 10:18:09;;;;;;;56.73;28.90;;;;;;;2.07;89.87;101133.56;5080469;28;20440;-69
2022/12/02 10:20:36;;;;;;;54.03;28.00;;;;;;;2.23;89.65;101138.19;5078555;28;20496;-65
2022/12/02 10:23:08;;;;;;;50.93;26.10;;;;;;;2.13;89.38;101126.31;5084724;28;20467;-69
2022/12/02 10:25:36;;;;;;;45.87;25.77;;;;;;;2.26;88.86;101132.78;5077073;28;20501;-69
2022/12/02 10:28:05;;;;;;;52.80;29.20;;;;;;;2.12;89.00;101130.75;5060311;28;20470;-67
2022/12/02 10:30:31;;;;;;;48.63;26.47;;;;;;;2.21;89.08;101138.25;5068212;28;20476;-69
2022/12/02 10:33:00;;;;;;;45.60;25.70;;;;;;;2.25;89.20;101139.84;5088643;28;20486;-66
2022/12/02 10:35:27;;;;;;;47.10;26.40;;;;;;;2.17;89.08;101139.31;5087151;28;20527;-68
2022/12/02 10:37:53;;;;;;;44.53;28.20;;;;;;;2.35;88.75;101131.53;5079993;28;20433;-69
2022/12/02 10:40:21;;;;;;;47.70;26.97;;;;;;;2.24;88.42;101132.84;5079599;28;20444;-70
2022/12/02 10:43:08;;;;;;;46.57;25.83;;;;;;;2.22;88.81;101124.16;5079884;28;20468;-69
2022/12/02 10:45:35;;;;;;;46.43;26.30;;;;;;;2.31;88.69;101122.91;5079449;28;20563;-69
2022/12/02 10:48:12;;;;;;;46.63;27.20;;;;;;;2.30;88.57;101120.31;5079675;28;20456;-67
2022/12/02 10:50:39;;;;;;;47.70;24.90;;;;;;;2.28;88.45;101117.75;5077750;28;20504;-68
2022/12/02 10:53:11;;;;;;;47.63;25.90;;;;;;;2.10;88.62;101129.97;5080930;28;20440;-69
2022/12/02 10:55:38;;;;;;;42.40;25.77;;;;;;;2.25;88.26;101118.72;5078483;28;20480;-68
2022/12/02 10:58:05;;;;;;;42.27;22.47;;;;;;;2.21;88.29;101117.16;5082668;28;20471;-67
2022/12/02 11:00:33;;;;;;;43.20;25.80;;;;;;;2.20;88.13;101118.06;5079698;28;20468;-67
2022/12/02 11:03:00;;;;;;;41.93;23.73;;;;;;;2.08;88.08;101129.13;5079234;28;21066;-68
2022/12/02 11:05:30;;;;;;;42.13;23.53;;;;;;;2.23;88.52;101120.56;5079414;28;20491;-68
2022/12/02 11:07:59;;;;;;;45.30;23.60;;;;;;;2.12;88.48;101116.69;5080453;28;20448;-64
2022/12/02 11:10:28;;;;;;;35.10;20.23;;;;;;;2.29;87.83;101115.97;5079576;28;20567;-65
2022/12/02 11:13:02;;;;;;;35.57;20.50;;;;;;;2.19;88.14;101124.28;5091009;28;20456;-64
2022/12/02 11:15:37;;;;;;;41.50;25.07;;;;;;;2.47;88.08;101116.97;5096325;28;20464;-65
2022/12/02 11:18:05;;;;;;;35.53;21.03;;;;;;;2.34;87.59;101117.47;5078492;28;20444;-65